createdAt,value
2024-03-08T00:01:45.237Z,12.35
2024-03-08T00:04:11.853Z,14.80
2024-03-08T00:06:38.476Z,13.30
2024-03-08T00:09:05.126Z,12.93
2024-03-08T00:11:31.827Z,14.85
2024-03-08T00:13:58.398Z,12.27
2024-03-08T00:16:25.045Z,14.27
2024-03-08T00:18:51.839Z,14.93
2024-03-08T00:21:18.545Z,11.70
2024-03-08T00:23:45.663Z,12.75
2024-03-08T00:26:12.253Z,12.85
2024-03-08T00:28:38.825Z,13.75
2024-03-08T00:31:05.424Z,16.63
2024-03-08T00:33:32.073Z,17.15
2024-03-08T00:35:58.765Z,12.90
2024-03-08T00:38:25.550Z,12.10
2024-03-08T00:40:52.123Z,15.20
2024-03-08T00:43:18.731Z,12.73
2024-03-08T00:45:45.280Z,13.63
2024-03-08T00:48:11.905Z,15.30
2024-03-08T00:50:38.649Z,12.70
2024-03-08T00:53:05.268Z,14.18
2024-03-08T00:55:31.893Z,13.57
2024-03-08T00:57:58.544Z,14.40
2024-03-08T01:00:25.185Z,12.93
2024-03-08T01:02:51.801Z,12.77
2024-03-08T01:05:18.395Z,14.52
2024-03-08T01:07:44.981Z,15.93
2024-03-08T01:10:11.791Z,10.82
2024-03-08T01:12:39.539Z,10.77
2024-03-08T01:15:06.851Z,11.88
2024-03-08T01:17:33.825Z,12.95
2024-03-08T01:20:00.580Z,13.02
2024-03-08T01:22:27.211Z,12.10
2024-03-08T01:24:53.811Z,16.92
2024-03-08T01:27:20.400Z,13.30
2024-03-08T01:29:47.103Z,15.40
2024-03-08T01:32:13.694Z,12.02
2024-03-08T01:34:40.275Z,14.07
2024-03-08T01:37:06.861Z,11.23
2024-03-08T01:39:33.821Z,13.30
2024-03-08T01:42:00.845Z,14.90
2024-03-08T01:44:27.544Z,12.05
2024-03-08T01:46:54.129Z,16.27
2024-03-08T01:49:21.841Z,13.63
2024-03-08T01:51:49.350Z,12.95
2024-03-08T01:54:17.310Z,11.93
2024-03-08T01:56:43.992Z,13.32
2024-03-08T01:59:10.688Z,11.27
2024-03-08T02:01:37.288Z,16.17
2024-03-08T02:04:03.873Z,14.50
2024-03-08T02:06:30.543Z,13.82
2024-03-08T02:08:57.180Z,16.17
2024-03-08T02:11:23.766Z,14.98
2024-03-08T02:13:50.386Z,13.98
2024-03-08T02:16:23.164Z,13.63
2024-03-08T02:18:49.911Z,14.52
2024-03-08T02:21:18.174Z,14.88
2024-03-08T02:23:44.952Z,13.02
2024-03-08T02:26:11.646Z,16.35
2024-03-08T02:28:38.233Z,13.07
2024-03-08T02:31:04.847Z,17.95
2024-03-08T02:33:31.689Z,15.57
2024-03-08T02:35:58.393Z,13.35
2024-03-08T02:38:25.013Z,15.05
2024-03-08T02:40:52.398Z,14.50
2024-03-08T02:43:19.873Z,13.27
2024-03-08T02:45:46.647Z,14.02
2024-03-08T02:48:13.899Z,14.95
2024-03-08T02:50:40.589Z,14.63
2024-03-08T02:53:07.316Z,13.98
2024-03-08T02:55:33.960Z,15.90
2024-03-08T02:58:00.589Z,16.17
2024-03-08T03:00:27.176Z,12.93
2024-03-08T03:02:53.792Z,14.57
2024-03-08T03:05:23.783Z,13.43
2024-03-08T03:07:50.805Z,15.00
2024-03-08T03:10:20.654Z,17.20
2024-03-08T03:15:13.981Z,14.52
2024-03-08T03:17:41.058Z,14.30
2024-03-08T03:20:11.039Z,16.60
2024-03-08T03:25:04.572Z,15.20
2024-03-08T03:27:31.301Z,17.63
2024-03-08T03:29:57.918Z,18.40
2024-03-08T03:32:24.669Z,17.05
2024-03-08T03:34:51.330Z,14.07
2024-03-08T03:37:17.900Z,14.70
2024-03-08T03:39:44.528Z,18.95
2024-03-08T03:42:11.204Z,14.68
2024-03-08T03:44:37.887Z,12.77
2024-03-08T03:47:04.479Z,12.02
2024-03-08T03:49:31.075Z,13.85
2024-03-08T03:51:57.640Z,13.82
2024-03-08T03:54:24.209Z,17.30
2024-03-08T03:56:51.035Z,17.85
2024-03-08T03:59:17.668Z,15.73
2024-03-08T04:01:44.312Z,15.48
2024-03-08T04:04:10.971Z,13.13
2024-03-08T04:06:37.585Z,15.98
2024-03-08T04:09:04.376Z,16.65
2024-03-08T04:11:31.054Z,18.02
2024-03-08T04:13:57.721Z,15.20
2024-03-08T04:16:24.310Z,16.15
2024-03-08T04:18:51.035Z,15.18
2024-03-08T04:21:18.038Z,14.90
2024-03-08T04:23:44.669Z,15.15
2024-03-08T04:26:11.321Z,17.25
2024-03-08T04:28:38.123Z,16.25
2024-03-08T04:31:04.967Z,15.68
2024-03-08T04:33:31.620Z,17.55
2024-03-08T04:35:58.308Z,13.35
2024-03-08T04:38:24.935Z,17.48
2024-03-08T04:40:51.527Z,14.20
2024-03-08T04:43:18.288Z,14.77
2024-03-08T04:45:45.243Z,15.13
2024-03-08T04:48:11.965Z,17.67
2024-03-08T04:50:38.652Z,15.75
2024-03-08T04:53:05.254Z,17.35
2024-03-08T04:55:31.873Z,17.05
2024-03-08T04:57:58.437Z,16.13
2024-03-08T05:00:25.018Z,17.98
2024-03-08T05:02:51.680Z,20.58
2024-03-08T05:05:18.242Z,19.17
2024-03-08T05:07:45.071Z,20.55
2024-03-08T05:10:11.642Z,16.23
2024-03-08T05:12:38.503Z,15.73
2024-03-08T05:15:05.973Z,18.05
2024-03-08T05:17:32.695Z,20.45
2024-03-08T05:19:59.605Z,22.63
2024-03-08T05:22:26.454Z,19.02
2024-03-08T05:24:53.237Z,19.73
2024-03-08T05:27:20.097Z,17.33
2024-03-08T05:29:46.723Z,16.38
2024-03-08T05:32:13.410Z,15.80
2024-03-08T05:34:40.037Z,17.65
2024-03-08T05:37:06.606Z,18.08
2024-03-08T05:39:33.194Z,15.32
2024-03-08T05:41:59.835Z,20.73
2024-03-08T05:44:26.452Z,17.65
2024-03-08T05:46:52.992Z,17.35
2024-03-08T05:49:19.629Z,18.77
2024-03-08T05:51:46.208Z,18.42
2024-03-08T05:54:15.340Z,16.63
2024-03-08T05:56:43.898Z,21.13
2024-03-08T05:59:11.025Z,18.20
2024-03-08T06:01:37.741Z,14.25
2024-03-08T06:04:04.678Z,17.40
2024-03-08T06:06:31.248Z,16.58
2024-03-08T06:08:57.911Z,19.13
2024-03-08T06:11:24.706Z,16.50
2024-03-08T06:13:51.348Z,17.58
2024-03-08T06:16:17.935Z,16.30
2024-03-08T06:18:45.016Z,16.17
2024-03-08T06:21:11.779Z,16.63
2024-03-08T06:23:38.879Z,14.70
2024-03-08T06:26:06.027Z,15.15
2024-03-08T06:28:32.588Z,14.55
2024-03-08T06:31:02.470Z,18.20
2024-03-08T06:35:56.324Z,14.95
2024-03-08T06:38:23.010Z,21.42
2024-03-08T06:40:49.629Z,17.33
2024-03-08T06:43:16.232Z,18.20
2024-03-08T06:45:43.688Z,20.33
2024-03-08T06:48:10.340Z,21.50
2024-03-08T06:50:37.062Z,16.70
2024-03-08T06:53:03.795Z,15.02
2024-03-08T06:55:30.414Z,17.23
2024-03-08T06:57:56.957Z,16.75
2024-03-08T07:00:23.620Z,21.05
2024-03-08T07:02:50.266Z,18.30
2024-03-08T07:05:16.993Z,20.05
2024-03-08T07:07:43.652Z,21.23
2024-03-08T07:10:10.420Z,19.58
2024-03-08T07:12:37.056Z,19.67
2024-03-08T07:15:03.934Z,18.42
2024-03-08T07:17:30.599Z,19.45
2024-03-08T07:19:57.335Z,20.00
2024-03-08T07:22:23.878Z,18.58
2024-03-08T07:24:50.509Z,20.50
2024-03-08T07:27:18.141Z,16.90
2024-03-08T07:29:44.901Z,22.85
2024-03-08T07:32:11.544Z,18.00
2024-03-08T07:34:38.139Z,19.08
2024-03-08T07:37:06.592Z,21.25
2024-03-08T07:39:34.558Z,21.60
2024-03-08T07:42:01.238Z,20.70
2024-03-08T07:44:27.913Z,23.27
2024-03-08T07:46:57.797Z,19.30
2024-03-08T07:49:24.759Z,19.73
2024-03-08T07:51:51.507Z,18.15
2024-03-08T07:54:18.114Z,17.60
2024-03-08T07:56:44.716Z,22.60
2024-03-08T07:59:11.217Z,20.23
2024-03-08T08:01:37.959Z,22.60
2024-03-08T08:04:04.571Z,21.58
2024-03-08T08:06:31.162Z,16.70
2024-03-08T08:08:57.742Z,22.13
2024-03-08T08:11:26.998Z,19.48
2024-03-08T08:13:53.686Z,20.15
2024-03-08T08:16:20.389Z,18.00
2024-03-08T08:18:47.006Z,17.65
2024-03-08T08:21:13.633Z,16.13
2024-03-08T08:23:40.192Z,19.35
2024-03-08T08:26:06.857Z,17.80
2024-03-08T08:28:33.522Z,19.63
2024-03-08T08:31:00.169Z,19.38
2024-03-08T08:33:26.929Z,20.48
2024-03-08T08:35:53.499Z,20.35
2024-03-08T08:38:20.327Z,20.83
2024-03-08T08:40:47.227Z,20.25
2024-03-08T08:43:14.518Z,20.20
2024-03-08T08:45:41.220Z,22.88
2024-03-08T08:48:08.037Z,18.00
2024-03-08T08:50:34.732Z,19.33
2024-03-08T08:53:01.408Z,22.58
2024-03-08T08:55:28.226Z,19.33
2024-03-08T08:57:55.109Z,21.20
2024-03-08T09:00:21.859Z,19.85
2024-03-08T09:02:48.526Z,19.83
2024-03-08T09:05:15.356Z,18.75
2024-03-08T09:07:42.061Z,19.52
2024-03-08T09:10:17.069Z,19.98
2024-03-08T09:12:45.023Z,20.15
2024-03-08T09:15:12.675Z,23.48
2024-03-08T09:17:39.779Z,19.08
2024-03-08T09:20:09.481Z,19.65
2024-03-08T09:22:36.335Z,18.85
2024-03-08T09:25:03.182Z,19.92
2024-03-08T09:27:29.781Z,20.98
2024-03-08T09:29:56.359Z,19.10
2024-03-08T09:32:22.919Z,19.92
2024-03-08T09:34:49.603Z,16.55
2024-03-08T09:37:16.281Z,19.60
2024-03-08T09:39:42.999Z,22.80
2024-03-08T09:42:09.609Z,19.42
2024-03-08T09:44:36.214Z,17.08
2024-03-08T09:47:02.887Z,19.98
2024-03-08T09:49:29.585Z,19.48
2024-03-08T09:51:56.507Z,21.52
2024-03-08T09:54:24.677Z,20.20
2024-03-08T09:56:52.566Z,19.58
2024-03-08T09:59:19.178Z,19.17
2024-03-08T10:01:45.891Z,18.25
2024-03-08T10:04:12.725Z,19.83
2024-03-08T10:06:39.341Z,19.10
2024-03-08T10:09:05.889Z,19.65
2024-03-08T10:11:32.521Z,17.92
2024-03-08T10:13:59.169Z,18.08
2024-03-08T10:16:28.201Z,21.42
2024-03-08T10:18:54.811Z,18.80
2024-03-08T10:21:21.494Z,17.98
2024-03-08T10:23:48.079Z,16.48
2024-03-08T10:26:15.938Z,17.92
2024-03-08T10:28:46.487Z,16.85
2024-03-08T10:31:14.870Z,20.52
2024-03-08T10:33:42.784Z,18.40
2024-03-08T10:36:09.601Z,16.73
2024-03-08T10:38:39.848Z,16.30
2024-03-08T10:41:06.474Z,19.83
2024-03-08T10:43:41.740Z,17.83
2024-03-08T10:46:25.013Z,16.67
2024-03-08T10:48:51.635Z,16.73
2024-03-08T10:51:18.207Z,14.45
2024-03-08T10:53:45.053Z,19.13
2024-03-08T10:56:11.871Z,14.90
2024-03-08T10:58:38.624Z,15.50
2024-03-08T11:01:05.363Z,16.20
2024-03-08T11:03:44.133Z,15.10
2024-03-08T11:06:39.230Z,12.25
2024-03-08T11:09:31.151Z,15.35
2024-03-08T11:12:27.775Z,17.00
2024-03-08T11:14:55.448Z,14.77
2024-03-08T11:17:34.328Z,15.75
2024-03-08T11:20:01.115Z,14.52
2024-03-08T11:22:29.342Z,15.98
2024-03-08T11:25:05.594Z,12.70
2024-03-08T11:27:32.332Z,18.65
2024-03-08T11:30:03.665Z,15.50
2024-03-08T11:32:30.617Z,15.65
2024-03-08T11:34:57.330Z,13.23
2024-03-08T11:37:24.011Z,12.60
2024-03-08T11:39:51.713Z,12.88
2024-03-08T11:42:18.838Z,16.02
2024-03-08T11:44:46.374Z,14.02
2024-03-08T11:47:13.347Z,14.38
2024-03-08T11:49:40.096Z,14.35
2024-03-08T11:52:06.812Z,17.85
2024-03-08T11:54:33.421Z,15.02
2024-03-08T11:57:00.055Z,13.10
2024-03-08T11:59:26.618Z,13.73
2024-03-08T12:02:03.975Z,15.77
2024-03-08T12:04:31.139Z,15.40
2024-03-08T12:07:02.299Z,16.98
2024-03-08T12:09:29.682Z,13.18
2024-03-08T12:11:56.385Z,12.80
2024-03-08T12:14:22.994Z,13.70
2024-03-08T12:16:49.850Z,15.68
2024-03-08T12:19:16.515Z,12.13
2024-03-08T12:21:43.449Z,12.38
2024-03-08T12:24:10.489Z,15.93
2024-03-08T12:26:37.890Z,12.50
2024-03-08T12:29:24.791Z,14.77
2024-03-08T12:32:01.046Z,14.15
2024-03-08T12:34:28.148Z,11.60
2024-03-08T12:36:54.797Z,12.95
2024-03-08T12:39:22.260Z,12.20
2024-03-08T12:41:48.973Z,12.85
2024-03-08T12:44:15.539Z,15.82
2024-03-08T12:46:42.137Z,12.07
2024-03-08T12:49:09.295Z,14.10
2024-03-08T12:51:36.034Z,16.52
2024-03-08T12:54:04.380Z,12.23
2024-03-08T12:56:33.224Z,11.50
2024-03-08T12:58:59.978Z,12.85
2024-03-08T13:01:27.142Z,13.20
2024-03-08T13:03:54.416Z,12.93
2024-03-08T13:06:21.107Z,11.40
2024-03-08T13:08:47.723Z,13.40
2024-03-08T13:11:14.442Z,12.90
2024-03-08T13:13:41.808Z,14.15
2024-03-08T13:16:08.578Z,14.13
2024-03-08T13:18:38.380Z,17.20
2024-03-08T13:21:05.396Z,13.48
2024-03-08T13:23:32.000Z,15.07
2024-03-08T13:25:58.649Z,16.13
2024-03-08T13:28:25.280Z,13.00
2024-03-08T13:30:56.082Z,13.07
2024-03-08T13:33:25.209Z,10.90
2024-03-08T13:35:52.126Z,13.43
2024-03-08T13:38:18.863Z,12.57
2024-03-08T13:40:45.598Z,12.82
2024-03-08T13:43:12.274Z,12.50
2024-03-08T13:45:38.890Z,13.52
2024-03-08T13:48:06.066Z,11.90
2024-03-08T13:50:32.785Z,11.55
2024-03-08T13:52:59.427Z,13.02
2024-03-08T13:55:26.166Z,13.55
2024-03-08T13:57:52.899Z,12.52
2024-03-08T14:00:19.860Z,11.40
2024-03-08T14:02:46.851Z,12.35
2024-03-08T14:05:13.662Z,12.75
2024-03-08T14:07:40.342Z,14.25
2024-03-08T14:10:07.568Z,12.57
2024-03-08T14:12:34.422Z,13.40
2024-03-08T14:15:01.030Z,13.93
2024-03-08T14:17:27.677Z,12.00
2024-03-08T14:19:55.486Z,11.02
2024-03-08T14:22:22.274Z,12.10
2024-03-08T14:24:48.904Z,11.55
2024-03-08T14:27:15.482Z,10.68
2024-03-08T14:29:42.174Z,13.95
2024-03-08T14:32:08.828Z,12.57
2024-03-08T14:34:35.463Z,10.90
2024-03-08T14:37:04.426Z,11.52
2024-03-08T14:39:32.923Z,11.55
2024-03-08T14:41:59.606Z,16.13
2024-03-08T14:44:26.233Z,10.43
2024-03-08T14:46:59.190Z,12.77
2024-03-08T14:49:26.181Z,11.43
2024-03-08T14:51:53.048Z,13.25
2024-03-08T14:54:19.685Z,12.57
2024-03-08T14:56:46.340Z,13.63
2024-03-08T14:59:12.934Z,12.32
2024-03-08T15:01:39.668Z,11.77
2024-03-08T15:04:06.328Z,11.75
2024-03-08T15:06:32.947Z,12.30
2024-03-08T15:08:59.627Z,10.77
2024-03-08T15:11:26.558Z,11.73
2024-03-08T15:13:53.523Z,13.60
2024-03-08T15:16:20.438Z,10.13
2024-03-08T15:18:49.764Z,13.02
2024-03-08T15:21:18.040Z,10.45
2024-03-08T15:23:44.723Z,10.52
2024-03-08T15:26:11.407Z,13.93
2024-03-08T15:28:38.231Z,8.88
2024-03-08T15:31:05.404Z,9.70
2024-03-08T15:33:32.112Z,9.02
2024-03-08T15:35:58.899Z,11.00
2024-03-08T15:38:26.372Z,10.30
2024-03-08T15:40:53.047Z,11.02
2024-03-08T15:43:19.722Z,11.30
2024-03-08T15:45:46.775Z,11.15
2024-03-08T15:48:13.912Z,9.30
2024-03-08T15:50:40.651Z,9.70
2024-03-08T15:53:07.348Z,11.88
2024-03-08T15:55:34.084Z,11.95
2024-03-08T15:58:00.799Z,10.98
2024-03-08T16:00:27.600Z,12.15
2024-03-08T16:02:54.293Z,11.38
2024-03-08T16:05:20.925Z,10.32
2024-03-08T16:07:47.595Z,10.35
2024-03-08T16:10:14.293Z,10.70
2024-03-08T16:12:40.885Z,11.68
2024-03-08T16:15:09.765Z,10.75
2024-03-08T16:17:36.507Z,10.65
2024-03-08T16:20:03.244Z,11.77
2024-03-08T16:22:29.920Z,14.40
2024-03-08T16:24:56.604Z,11.07
2024-03-08T16:27:23.192Z,12.48
2024-03-08T16:29:49.865Z,10.20
2024-03-08T16:32:16.486Z,11.15
2024-03-08T16:34:43.224Z,12.50
2024-03-08T16:37:09.820Z,11.52
2024-03-08T16:39:36.465Z,13.27
2024-03-08T16:42:03.076Z,11.15
2024-03-08T16:44:29.781Z,10.00
2024-03-08T16:47:00.723Z,12.32
2024-03-08T16:49:27.402Z,13.02
2024-03-08T16:51:53.976Z,9.52
2024-03-08T16:54:20.635Z,12.77
2024-03-08T16:56:47.216Z,12.45
2024-03-08T16:59:13.866Z,11.60
2024-03-08T17:01:40.471Z,12.93
2024-03-08T17:04:07.152Z,13.88
2024-03-08T17:06:33.752Z,11.57
2024-03-08T17:09:00.343Z,11.52
2024-03-08T17:11:27.194Z,13.10
2024-03-08T17:13:53.911Z,17.08
2024-03-08T17:16:20.591Z,13.50
2024-03-08T17:18:47.178Z,14.20
2024-03-08T17:21:13.781Z,11.90
2024-03-08T17:23:43.198Z,15.95
2024-03-08T17:26:10.129Z,18.38
2024-03-08T17:28:36.896Z,14.73
2024-03-08T17:31:03.712Z,16.35
2024-03-08T17:33:30.304Z,16.50
2024-03-08T17:35:56.965Z,14.23
2024-03-08T17:38:23.561Z,12.18
2024-03-08T17:40:50.211Z,15.77
2024-03-08T17:43:16.898Z,12.10
2024-03-08T17:45:43.551Z,14.70
2024-03-08T17:48:10.352Z,14.63
2024-03-08T17:50:36.957Z,15.45
2024-03-08T17:53:03.606Z,14.13
2024-03-08T17:55:30.259Z,16.75
2024-03-08T17:57:56.854Z,16.92
2024-03-08T18:00:23.824Z,16.42
2024-03-08T18:02:50.384Z,17.25
2024-03-08T18:05:19.456Z,14.07
2024-03-08T18:07:46.639Z,12.27
2024-03-08T18:10:13.305Z,12.48
2024-03-08T18:12:39.916Z,13.43
2024-03-08T18:15:06.892Z,14.82
2024-03-08T18:17:33.495Z,15.07
2024-03-08T18:20:00.183Z,14.10
2024-03-08T18:22:26.926Z,13.65
2024-03-08T18:24:53.583Z,14.48
2024-03-08T18:27:20.160Z,16.30
2024-03-08T18:29:46.765Z,15.63
2024-03-08T18:32:13.320Z,17.00
2024-03-08T18:34:39.926Z,13.50
2024-03-08T18:37:06.686Z,13.75
2024-03-08T18:39:33.281Z,13.23
2024-03-08T18:41:59.877Z,13.43
2024-03-08T18:44:26.478Z,11.88
2024-03-08T18:46:53.128Z,18.02
2024-03-08T18:49:19.746Z,9.98
2024-03-08T18:51:46.371Z,13.65
2024-03-08T18:54:12.955Z,13.23
2024-03-08T18:56:39.539Z,14.05
2024-03-08T18:59:06.247Z,11.85
2024-03-08T19:01:32.954Z,14.55
2024-03-08T19:03:59.603Z,11.73
2024-03-08T19:06:26.109Z,14.27
2024-03-08T19:08:52.740Z,13.15
2024-03-08T19:11:19.643Z,15.10
2024-03-08T19:13:46.401Z,11.23
2024-03-08T19:16:13.095Z,11.85
2024-03-08T19:18:39.689Z,16.55
2024-03-08T19:21:06.273Z,14.63
2024-03-08T19:23:32.876Z,13.50
2024-03-08T19:25:59.566Z,11.55
2024-03-08T19:28:26.249Z,15.63
2024-03-08T19:30:52.876Z,14.18
2024-03-08T19:33:19.505Z,12.75
2024-03-08T19:35:46.203Z,14.80
2024-03-08T19:38:13.364Z,12.15
2024-03-08T19:40:40.299Z,13.00
2024-03-08T19:43:07.245Z,14.60
2024-03-08T19:45:34.145Z,14.93
2024-03-08T19:48:02.052Z,14.63
2024-03-08T19:50:29.182Z,12.93
2024-03-08T19:52:56.392Z,13.45
2024-03-08T19:55:23.360Z,16.15
2024-03-08T19:57:51.840Z,12.27
2024-03-08T20:00:19.609Z,12.10
2024-03-08T20:02:47.047Z,15.15
2024-03-08T20:05:14.207Z,12.43
2024-03-08T20:07:41.912Z,13.65
2024-03-08T20:10:11.970Z,13.68
2024-03-08T20:12:39.433Z,12.07
2024-03-08T20:15:07.009Z,14.20
2024-03-08T20:17:33.605Z,14.38
2024-03-08T20:20:00.301Z,16.88
2024-03-08T20:22:27.048Z,15.93
2024-03-08T20:24:53.694Z,14.05
2024-03-08T20:27:20.325Z,14.23
2024-03-08T20:29:46.907Z,16.65
2024-03-08T20:32:13.612Z,14.18
2024-03-08T20:34:40.224Z,14.32
2024-03-08T20:37:06.904Z,13.68
2024-03-08T20:39:33.550Z,14.02
2024-03-08T20:42:00.154Z,13.70
2024-03-08T20:44:26.733Z,14.60
2024-03-08T20:46:53.362Z,13.43
2024-03-08T20:49:20.004Z,14.80
2024-03-08T20:51:46.888Z,14.27
2024-03-08T20:54:13.418Z,12.77
2024-03-08T20:56:42.289Z,13.10
2024-03-08T20:59:09.205Z,13.40
2024-03-08T21:01:35.957Z,14.43
2024-03-08T21:04:02.589Z,14.77
2024-03-08T21:06:29.252Z,12.05
2024-03-08T21:08:55.818Z,14.43
2024-03-08T21:11:25.618Z,15.30
2024-03-08T21:13:52.253Z,14.65
2024-03-08T21:16:18.943Z,13.18
2024-03-08T21:18:45.564Z,12.23
2024-03-08T21:21:12.134Z,13.48
2024-03-08T21:23:38.708Z,14.02
2024-03-08T21:26:05.339Z,13.65
2024-03-08T21:28:31.965Z,16.10
2024-03-08T21:30:58.564Z,13.82
2024-03-08T21:33:25.173Z,12.48
2024-03-08T21:35:51.790Z,10.80
2024-03-08T21:38:18.351Z,14.82
2024-03-08T21:40:57.263Z,14.50
2024-03-08T21:43:29.583Z,15.45
2024-03-08T21:45:56.265Z,13.30
2024-03-08T21:48:23.147Z,15.32
2024-03-08T21:50:49.904Z,15.80
2024-03-08T21:53:23.496Z,14.10
2024-03-08T21:55:54.497Z,13.27
2024-03-08T21:58:21.116Z,13.13
2024-03-08T22:00:47.726Z,14.38
2024-03-08T22:03:14.465Z,13.30
2024-03-08T22:05:41.061Z,11.93
2024-03-08T22:08:07.642Z,13.50
2024-03-08T22:10:34.293Z,12.48
2024-03-08T22:13:00.895Z,13.40
2024-03-08T22:15:27.529Z,13.15
2024-03-08T22:17:54.301Z,15.88
2024-03-08T22:20:21.046Z,16.73
2024-03-08T22:22:48.026Z,14.88
2024-03-08T22:25:14.918Z,14.00
2024-03-08T22:27:41.522Z,15.80
2024-03-08T22:30:09.510Z,13.43
2024-03-08T22:32:36.182Z,17.48
2024-03-08T22:35:03.553Z,12.30
2024-03-08T22:37:30.168Z,13.00
2024-03-08T22:39:58.447Z,13.77
2024-03-08T22:42:25.268Z,13.98
2024-03-08T22:44:51.852Z,13.00
2024-03-08T22:47:18.531Z,10.85
2024-03-08T22:49:45.218Z,14.90
2024-03-08T22:52:11.906Z,15.88
2024-03-08T22:54:38.591Z,13.85
2024-03-08T22:57:05.252Z,15.15
2024-03-08T22:59:31.811Z,15.90
2024-03-08T23:01:58.472Z,12.48
2024-03-08T23:04:25.097Z,15.25
2024-03-08T23:06:51.768Z,13.85
2024-03-08T23:09:18.306Z,15.10
2024-03-08T23:11:44.957Z,12.02
2024-03-08T23:14:11.629Z,13.52
2024-03-08T23:16:38.929Z,14.07
2024-03-08T23:19:05.594Z,14.57
2024-03-08T23:21:32.251Z,14.27
2024-03-08T23:23:58.860Z,15.07
2024-03-08T23:26:25.423Z,13.98
2024-03-08T23:28:52.052Z,14.25
2024-03-08T23:31:18.731Z,17.25
2024-03-08T23:33:45.338Z,13.90
2024-03-08T23:36:12.002Z,14.80
2024-03-08T23:38:38.608Z,16.10
2024-03-08T23:41:05.507Z,16.35
2024-03-08T23:43:32.223Z,16.33
2024-03-08T23:45:58.868Z,13.68
2024-03-08T23:48:25.457Z,13.80
2024-03-08T23:50:52.101Z,15.60
2024-03-08T23:53:18.795Z,15.65
2024-03-08T23:55:45.417Z,14.70
2024-03-08T23:58:12.903Z,16.13
